This is the latest recevied weather packets stored in our database for station/object SR6WVX. If no packets are shown the sender has not sent any weather packets the latest 1 day(s).
| Time | Temp. | Humidity | Pressure | Rain* | Wind** | Luminosity | Snow |
|---|---|---|---|---|---|---|---|
| 1778057605 | 25° C | 43% | 999.7 hPa | 0 mm | - | - | - |
| 1778057305 | 25.56° C | 42% | 999.7 hPa | 0 mm | - | - | - |
| 1778056704 | 25.56° C | 44% | 999.6 hPa | 0 mm | - | - | - |
| 1778056404 | 25.56° C | 48% | 999.7 hPa | 0 mm | - | - | - |
| 1778056104 | 25.56° C | 48% | 999.9 hPa | 0 mm | - | - | - |
| 1778055803 | 25.56° C | 46% | 999.8 hPa | 0 mm | - | - | - |
| 1778055503 | 26.11° C | 46% | 1000 hPa | 0 mm | - | - | - |
| 1778055203 | 26.67° C | 46% | 1000 hPa | 0 mm | - | - | - |
| 1778054902 | 26.11° C | 47% | 999.8 hPa | 0 mm | - | - | - |
| 1778054602 | 26.11° C | 50% | 999.9 hPa | 0 mm | - | - | - |
| 1778054302 | 25° C | 51% | 1000 hPa | 0 mm | - | - | - |
| 1778054002 | 23.89° C | 54% | 1000 hPa | 0 mm | - | - | - |
| 1778053101 | 22.22° C | 55% | 1000 hPa | 0 mm | - | - | - |
| 1778052801 | 21.67° C | 55% | 999.9 hPa | 0 mm | - | - | - |
| 1778052200 | 21.67° C | 53% | 999.9 hPa | 0 mm | - | - | - |
| 1778051900 | 23.33° C | 51% | 999.8 hPa | 0 mm | - | - | - |
| 1778051600 | 23.89° C | 51% | 999.8 hPa | 0 mm | - | - | - |
| 1778051299 | 23.89° C | 50% | 999.7 hPa | 0 mm | - | - | - |
| 1778050699 | 23.89° C | 53% | 999.7 hPa | 0 mm | - | - | - |
| 1778049798 | 21.67° C | 57% | 1000 hPa | 0 mm | - | - | - |
| 1778049498 | 21.11° C | 58% | 999.9 hPa | 0 mm | - | - | - |
| 1778048897 | 22.22° C | 56% | 999.5 hPa | 0 mm | - | - | - |
| 1778048597 | 22.78° C | 56% | 999.7 hPa | 0 mm | - | - | - |
| 1778048297 | 22.78° C | 58% | 999.7 hPa | 0 mm | - | - | - |
| 1778047396 | 20.56° C | 64% | 999.7 hPa | 0 mm | - | - | - |
* Rain latest hour (hover to see other rain measurements)
** Current wind speed in m/s (hover to see current wind gust speed)